CoUP De Foudre — 2JDZ3 — position and weather

sailwx.info

Track history (hours):
 
Tides and Currents Weather Stations Pressure Air Temp Water Temp Dewpoint Dewpoint Depression Visibility Wind Speed Wind Dir Waves Ship Positions

CoUP De Foudre

Last reported at 2017-Oct-01 14:48 UTC. Time now 2017-Oct-23 04:34 UTC.
Position N 39°33' E 002°38'.
Warning: this ship's position is 21 days out of date.

Length 18 m.

Type: Sailing vessel. MMSI: 235115129.

Date/timePositionNaut miles runAvg speedWind from/ knotsBaromVisibWave heightAir tempDewpointWater temp
2017-Oct-01 14:48N 39°33' E 002°38'2 6.7
2017-Oct-01 14:30N 39°32' E 002°37'4 7.1
2017-Oct-01 14:00N 39°29' E 002°33'2 0.4
2017-Oct-01 09:53N 39°28' E 002°32'3 6.7
2017-Oct-01 09:30N 39°30' E 002°34'3 6.3
2017-Oct-01 09:00N 39°32' E 002°37'2 4.0
2017-Oct-01 08:29N 39°34' E 002°38'0 0.0
2017-Oct-01 07:59N 39°34' E 002°38'0 0.0
2017-Oct-01 07:29N 39°34' E 002°38'0 0.0
2017-Oct-01 06:59N 39°34' E 002°38'0 0.0
2017-Oct-01 06:29N 39°34' E 002°38'0 0.0
2017-Oct-01 05:59N 39°34' E 002°38'0 0.0
2017-Oct-01 05:29N 39°34' E 002°38'0 0.0
2017-Oct-01 04:59N 39°34' E 002°38'0 0.0
2017-Oct-01 04:29N 39°34' E 002°38'0 0.0
2017-Oct-01 03:59N 39°34' E 002°38'0 0.0
2017-Oct-01 03:29N 39°34' E 002°38'0 0.0
2017-Oct-01 02:59N 39°34' E 002°38'4 0.1
2017-Sep-29 10:32N 39°30' E 002°41'0 6.9
2017-Sep-29 10:30N 39°30' E 002°41'3 6.7
2017-Sep-29 10:00N 39°33' E 002°39'1 1.8
2017-Sep-29 09:29N 39°34' E 002°38'0 0.0
2017-Sep-29 08:59N 39°34' E 002°38'0 0.0
2017-Sep-29 08:30N 39°34' E 002°38'0 0.0
2017-Sep-29 07:59N 39°34' E 002°38'0 0.0
2017-Sep-29 07:29N 39°34' E 002°38'0 0.0
2017-Sep-28 22:51N 39°34' E 002°38'0 0.0
2017-Sep-28 22:30N 39°34' E 002°38'0 0.0
2017-Sep-28 22:00N 39°34' E 002°38'0 0.0
2017-Sep-28 21:30N 39°34' E 002°38'0 0.0
2017-Sep-28 21:00N 39°34' E 002°38'0 0.0
2017-Sep-28 20:30N 39°34' E 002°38'0 0.0
2017-Sep-28 20:00N 39°34' E 002°38'0 0.0
2017-Sep-28 19:30N 39°34' E 002°38'0 0.0
2017-Sep-28 19:00N 39°34' E 002°38'0 0.0
2017-Sep-28 18:30N 39°34' E 002°38'0 0.0
2017-Sep-28 18:00N 39°34' E 002°38'0 0.0
2017-Sep-28 17:30N 39°34' E 002°38'0 0.0
2017-Sep-28 17:00N 39°34' E 002°38'0 0.0
2017-Sep-28 16:30N 39°34' E 002°38'3 0.5
2017-Sep-28 10:25N 39°31' E 002°39'1 3.5
2017-Sep-28 10:00N 39°32' E 002°39'2 3.5
2017-Sep-28 09:30N 39°34' E 002°38'0 0.0
2017-Sep-28 09:00N 39°34' E 002°38'0 0.0
2017-Sep-28 08:30N 39°34' E 002°38'0 0.0
2017-Sep-28 08:00N 39°34' E 002°38'0 0.0
2017-Sep-28 07:30N 39°34' E 002°38'0 0.0
2017-Sep-28 07:00N 39°34' E 002°38'0 0.0
2017-Sep-28 06:30N 39°34' E 002°38'0 0.0
2017-Sep-28 06:00N 39°34' E 002°38'0 0.0
2017-Sep-28 05:30N 39°34' E 002°38'0 0.0
2017-Sep-28 05:00N 39°34' E 002°38'0 0.0
2017-Sep-28 04:30N 39°34' E 002°38'0 0.0
2017-Sep-28 04:00N 39°34' E 002°38'0 0.0
2017-Sep-28 03:30N 39°34' E 002°38'0 0.0
2017-Sep-28 03:00N 39°34' E 002°38'0 0.0
2017-Sep-28 02:30N 39°34' E 002°38'0 0.0
2017-Sep-28 02:00N 39°34' E 002°38'0 0.0
2017-Sep-28 01:30N 39°34' E 002°38'0 0.0
2017-Sep-28 00:57N 39°34' E 002°38'0 0.0
2017-Sep-28 00:27N 39°34' E 002°38'0 0.0
2017-Sep-28 00:00N 39°34' E 002°38'0 0.0
2017-Sep-27 23:30N 39°34' E 002°38'0 0.0
2017-Sep-27 23:00N 39°34' E 002°38'0 0.0
2017-Sep-27 22:30N 39°34' E 002°38'0 0.0
2017-Sep-27 22:00N 39°34' E 002°38'0 0.0
2017-Sep-27 21:30N 39°34' E 002°38'0 0.0
2017-Sep-27 21:00N 39°34' E 002°38'0 0.0
2017-Sep-27 20:30N 39°34' E 002°38'0 0.0
2017-Sep-27 20:00N 39°34' E 002°38'0 0.0
2017-Sep-27 19:30N 39°34' E 002°38'0 0.0
2017-Sep-27 19:00N 39°34' E 002°38'0 0.0
2017-Sep-27 18:30N 39°34' E 002°38'0 0.0
2017-Sep-27 18:00N 39°34' E 002°38'0 0.0
2017-Sep-27 17:30N 39°34' E 002°38'0 0.0
2017-Sep-27 17:00N 39°34' E 002°38'0 0.0
2017-Sep-27 16:30N 39°34' E 002°38'0 0.0
2017-Sep-27 15:57N 39°34' E 002°38'0 0.2
2017-Sep-27 15:30N 39°34' E 002°38'4 7.2
2017-Sep-27 15:01N 39°31' E 002°40'3 5.1
2017-Sep-27 14:30N 39°30' E 002°37'2 4.3
2017-Sep-27 14:01N 39°29' E 002°34'1 2.5
2017-Sep-27 13:30N 39°30' E 002°35'1 3.0
2017-Sep-27 13:01N 39°31' E 002°36'2 3.8
2017-Sep-27 12:29N 39°30' E 002°38'1 3.1
2017-Sep-27 12:01N 39°30' E 002°40'0 0.3
2017-Sep-27 11:31N 39°30' E 002°40'0 0.9
2017-Sep-27 10:58N 39°30' E 002°40'0 0.9
2017-Sep-27 10:30N 39°31' E 002°40'3 5.5
2017-Sep-27 10:00N 39°33' E 002°39'1 1.0
2017-Sep-27 09:28N 39°34' E 002°38'0 0.0
2017-Sep-27 08:58N 39°34' E 002°38'0 0.0
2017-Sep-27 08:28N 39°34' E 002°38'0 0.0
2017-Sep-27 07:58N 39°34' E 002°38'0 0.0
2017-Sep-27 07:22N 39°34' E 002°38'0 0.0
2017-Sep-27 06:58N 39°34' E 002°38'0 0.0
2017-Sep-27 06:28N 39°34' E 002°38'0 0.0
2017-Sep-27 05:58N 39°34' E 002°38'0 0.0
2017-Sep-27 05:28N 39°34' E 002°38'0 0.0
2017-Sep-27 04:58N 39°34' E 002°38'0 0.0
2017-Sep-27 04:28N 39°34' E 002°38'0 0.0
2017-Sep-27 03:58N 39°34' E 002°38'0 0.0
2017-Sep-27 03:28N 39°34' E 002°38'0 0.0
2017-Sep-27 02:58N 39°34' E 002°38'0 0.0
2017-Sep-27 02:28N 39°34' E 002°38'0 0.0
2017-Sep-27 01:58N 39°34' E 002°38'0 0.0
2017-Sep-27 01:28N 39°34' E 002°38'0 0.0
2017-Sep-27 00:58N 39°34' E 002°38'0 0.0
2017-Sep-27 00:28N 39°34' E 002°38'0 0.0
2017-Sep-26 23:58N 39°34' E 002°38'0 0.0
2017-Sep-26 23:28N 39°34' E 002°38'0 0.0
2017-Sep-26 22:58N 39°34' E 002°38'0 0.0
2017-Sep-26 22:28N 39°34' E 002°38'0 0.0
2017-Sep-26 21:58N 39°34' E 002°38'0 0.0
2017-Sep-26 21:28N 39°34' E 002°38'0 0.0
2017-Sep-26 20:58N 39°34' E 002°38'0 0.0
2017-Sep-26 20:28N 39°34' E 002°38'0 0.0
2017-Sep-26 19:58N 39°34' E 002°38'0 0.0
2017-Sep-26 19:28N 39°34' E 002°38'0 0.0
2017-Sep-26 18:58N 39°34' E 002°38'0 0.0
2017-Sep-26 18:28N 39°34' E 002°38'0 0.0
2017-Sep-26 17:58N 39°34' E 002°38'0 0.0
2017-Sep-26 17:28N 39°34' E 002°38'0 0.0
2017-Sep-26 16:58N 39°34' E 002°38'0 0.0
2017-Sep-26 16:28N 39°34' E 002°38'0 0.0
2017-Sep-26 15:58N 39°34' E 002°38'0 0.0
2017-Sep-26 15:28N 39°34' E 002°38'1 1.6
2017-Sep-26 15:00N 39°33' E 002°38'4 7.5
2017-Sep-26 14:30N 39°30' E 002°40'2 4.5
2017-Sep-26 14:00N 39°31' E 002°42'3 5.5
2017-Sep-26 13:30N 39°33' E 002°39'1 2.2
2017-Sep-26 12:58N 39°34' E 002°38'0 0.0
2017-Sep-26 12:28N 39°34' E 002°38'0 0.0
2017-Sep-26 11:58N 39°34' E 002°38'0 0.0
2017-Sep-26 11:28N 39°34' E 002°38'0 0.0
2017-Sep-26 10:58N 39°34' E 002°38'0 0.0
2017-Sep-26 10:28N 39°34' E 002°38'0 0.0
2017-Sep-26 09:58N 39°34' E 002°38'0 0.0
2017-Sep-26 09:28N 39°34' E 002°38'0 0.0
2017-Sep-26 08:58N 39°34' E 002°38'0 0.0
2017-Sep-26 08:28N 39°34' E 002°38'0 0.0
2017-Sep-26 07:58N 39°34' E 002°38'0 0.0
2017-Sep-26 07:28N 39°34' E 002°38'0 0.0
2017-Sep-26 06:58N 39°34' E 002°38'0 0.0
2017-Sep-26 06:28N 39°34' E 002°38'0 0.0
2017-Sep-26 05:58N 39°34' E 002°38'0 0.0
2017-Sep-26 05:28N 39°34' E 002°38'0 0.0
2017-Sep-26 04:58N 39°34' E 002°38'0 0.0
2017-Sep-26 04:28N 39°34' E 002°38'0 0.0
2017-Sep-26 03:58N 39°34' E 002°38'0 0.0
2017-Sep-26 03:28N 39°34' E 002°38'0 0.0
2017-Sep-26 02:58N 39°34' E 002°38'0 0.0
2017-Sep-26 02:28N 39°34' E 002°38'0 0.0
2017-Sep-26 01:58N 39°34' E 002°38'0 0.0
2017-Sep-26 01:28N 39°34' E 002°38'0 0.0
2017-Sep-26 00:58N 39°34' E 002°38'0 0.0
2017-Sep-26 00:28N 39°34' E 002°38'0 0.0
2017-Sep-25 23:58N 39°34' E 002°38'0 0.0
2017-Sep-25 23:28N 39°34' E 002°38'0 0.0
2017-Sep-25 22:58N 39°34' E 002°38'0 0.0
2017-Sep-25 22:28N 39°34' E 002°38'0 0.0
2017-Sep-25 21:58N 39°34' E 002°38'0 0.0
2017-Sep-25 21:28N 39°34' E 002°38'0 0.0
2017-Sep-25 20:58N 39°34' E 002°38'0 0.0
2017-Sep-25 20:28N 39°34' E 002°38'0 0.0
2017-Sep-25 19:58N 39°34' E 002°38'0 0.0
2017-Sep-25 19:28N 39°34' E 002°38'0 0.0
2017-Sep-25 18:58N 39°34' E 002°38'0 0.0
2017-Sep-25 18:28N 39°34' E 002°38'0 0.0
2017-Sep-25 17:58N 39°34' E 002°38'0 0.0
2017-Sep-25 17:28N 39°34' E 002°38'0 0.0
2017-Sep-25 16:58N 39°34' E 002°38'0 0.0
2017-Sep-25 16:28N 39°34' E 002°38'0 0.0
2017-Sep-25 15:58N 39°34' E 002°38'0 0.0
2017-Sep-25 15:28N 39°34' E 002°38'0 0.0
2017-Sep-25 14:58N 39°34' E 002°38'0 0.0
2017-Sep-25 14:28N 39°34' E 002°38'0 0.0
2017-Sep-25 13:58N 39°34' E 002°38'0 0.0
2017-Sep-25 13:28N 39°34' E 002°38'0 0.0
2017-Sep-25 12:58N 39°34' E 002°38'0 0.0
2017-Sep-25 12:28N 39°34' E 002°38'0 0.0
2017-Sep-25 11:58N 39°34' E 002°38'0 0.0
2017-Sep-25 11:28N 39°34' E 002°38'0 0.0
2017-Sep-25 10:58N 39°34' E 002°38'0 0.0
2017-Sep-25 10:28N 39°34' E 002°38'0 0.0
2017-Sep-25 09:58N 39°34' E 002°38'0 0.0
2017-Sep-25 09:28N 39°34' E 002°38'0 0.0
2017-Sep-25 08:58N 39°34' E 002°38'0 0.0
2017-Sep-25 08:28N 39°34' E 002°38'0 0.0
2017-Sep-25 07:58N 39°34' E 002°38'0 0.0
2017-Sep-25 07:28N 39°34' E 002°38'0 0.0
2017-Sep-25 06:58N 39°34' E 002°38'0 0.0
2017-Sep-25 06:28N 39°34' E 002°38'0 0.0
2017-Sep-25 05:58N 39°34' E 002°38'0 0.0
2017-Sep-25 05:28N 39°34' E 002°38'0 0.0
2017-Sep-25 04:58N 39°34' E 002°38'0 0.0
2017-Sep-25 04:28N 39°34' E 002°38'0 0.0
2017-Sep-25 03:58N 39°34' E 002°38'0 0.0
2017-Sep-25 03:28N 39°34' E 002°38'0 0.0
2017-Sep-25 02:58N 39°34' E 002°38'0 0.0
2017-Sep-25 02:28N 39°34' E 002°38'0 0.0
2017-Sep-25 01:58N 39°34' E 002°38'0 0.0
2017-Sep-25 01:28N 39°34' E 002°38'0 0.0
2017-Sep-25 00:58N 39°34' E 002°38'0 0.0
2017-Sep-25 00:28N 39°34' E 002°38'0 0.0
2017-Sep-24 23:58N 39°34' E 002°38'0 0.0
2017-Sep-24 23:28N 39°34' E 002°38'0 0.0
2017-Sep-24 23:01N 39°34' E 002°38'0 0.0
2017-Sep-24 22:28N 39°34' E 002°38'0 0.0
2017-Sep-24 22:01N 39°34' E 002°38'0 0.0
2017-Sep-24 21:31N 39°34' E 002°38'0 0.0
2017-Sep-24 21:01N 39°34' E 002°38'0 0.0
2017-Sep-24 20:28N 39°34' E 002°38'0 0.0
2017-Sep-24 20:01N 39°34' E 002°38'0 0.0
2017-Sep-24 19:28N 39°34' E 002°38'0 0.0
2017-Sep-24 18:58N 39°34' E 002°38'0 0.0
2017-Sep-24 18:28N 39°34' E 002°38'0 0.0
2017-Sep-24 18:01N 39°34' E 002°38'0 0.0
2017-Sep-24 17:31N 39°34' E 002°38'0 0.0
2017-Sep-24 16:58N 39°34' E 002°38'0 0.0
2017-Sep-24 16:31N 39°34' E 002°38'0 0.0
2017-Sep-24 16:01N 39°34' E 002°38'0 0.0
2017-Sep-24 15:28N 39°34' E 002°38'0 0.0
2017-Sep-24 15:01N 39°34' E 002°38'0 0.0
2017-Sep-24 14:31N 39°34' E 002°38'0 0.0
2017-Sep-24 14:01N 39°34' E 002°38'0 0.0
2017-Sep-24 13:31N 39°34' E 002°38'0 0.0
2017-Sep-24 12:58N 39°34' E 002°38'0 0.0
2017-Sep-24 12:31N 39°34' E 002°38'0 0.0
2017-Sep-24 12:01N 39°34' E 002°38'0 0.0
2017-Sep-24 11:31N 39°34' E 002°38'0 0.0
2017-Sep-24 11:01N 39°34' E 002°38'0 0.1
2017-Sep-24 10:30N 39°34' E 002°38'0 0.1
2017-Sep-24 09:59N 39°34' E 002°38'0 0.0
2017-Sep-24 09:29N 39°34' E 002°38'0 0.0
2017-Sep-24 09:00N 39°34' E 002°38'0 0.0
2017-Sep-24 08:30N 39°34' E 002°38'0 0.1
2017-Sep-24 07:59N 39°34' E 002°38'0 0.0
2017-Sep-24 07:29N 39°34' E 002°38'0 0.0
2017-Sep-24 06:59N 39°34' E 002°38'0 0.0
2017-Sep-24 06:29N 39°34' E 002°38'0 0.0
2017-Sep-24 05:58N 39°34' E 002°38'0 0.0
2017-Sep-24 05:28N 39°34' E 002°38'0 0.0
2017-Sep-23 23:00N 39°34' E 002°38'0 0.0
2017-Sep-23 22:30N 39°34' E 002°38'0 0.0
2017-Sep-23 22:00N 39°34' E 002°38'0 0.0
2017-Sep-23 21:31N 39°34' E 002°38'0 0.0
2017-Sep-23 21:00N 39°34' E 002°38'0 0.0
2017-Sep-23 20:30N 39°34' E 002°38'0 0.0
2017-Sep-23 19:57N 39°34' E 002°38'0 0.0
2017-Sep-22 01:59N 39°34' E 002°38'0 0.0
2017-Sep-22 01:29N 39°34' E 002°38'0 0.0
2017-Sep-22 00:59N 39°34' E 002°38'0 0.0
2017-Sep-22 00:29N 39°34' E 002°38'0 0.0
2017-Sep-21 23:59N 39°34' E 002°38'0 0.0
2017-Sep-21 23:29N 39°34' E 002°38'0 0.0
2017-Sep-21 22:59N 39°34' E 002°38'0 0.0
2017-Sep-21 22:29N 39°34' E 002°38'0 0.0
2017-Sep-21 21:59N 39°34' E 002°38'0 0.0
2017-Sep-21 21:29N 39°34' E 002°38'0 0.0
2017-Sep-21 20:59N 39°34' E 002°38'0 0.0
2017-Sep-21 20:29N 39°34' E 002°38'0 0.0
2017-Sep-21 19:59N 39°34' E 002°38'0 0.0
2017-Sep-21 19:29N 39°34' E 002°38'0 0.0
2017-Sep-21 18:59N 39°34' E 002°38'0 0.0
2017-Sep-21 18:29N 39°34' E 002°38'0 0.0
2017-Sep-21 17:59N 39°34' E 002°38'0 0.0
2017-Sep-21 17:29N 39°34' E 002°38'0 0.0
2017-Sep-21 16:59N 39°34' E 002°38'0 0.0
2017-Sep-21 16:29N 39°34' E 002°38'0 0.0
2017-Sep-21 15:59N 39°34' E 002°38'0 0.0
2017-Sep-21 15:29N 39°34' E 002°38'0 0.0
2017-Sep-21 14:59N 39°34' E 002°38'  
Track history (hours):
 
Tides and Currents Weather Stations Pressure Air Temp Water Temp Dewpoint Dewpoint Depression Visibility Wind Speed Wind Dir Waves Ship Positions

CoUP De Foudre

Last reported at 2017-Oct-01 14:48 UTC. Time now 2017-Oct-23 04:34 UTC.
Position N 39°33' E 002°38'.
Warning: this ship's position is 21 days out of date.

Length 18 m.

Type: Sailing vessel. MMSI: 235115129.

Date/timePositionNaut miles runAvg speedWind from/ knotsBaromVisibWave heightAir tempDewpointWater temp
2017-Oct-01 14:48N 39°33' E 002°38'2 6.7
2017-Oct-01 14:30N 39°32' E 002°37'4 7.1
2017-Oct-01 14:00N 39°29' E 002°33'2 0.4
2017-Oct-01 09:53N 39°28' E 002°32'3 6.7
2017-Oct-01 09:30N 39°30' E 002°34'3 6.3
2017-Oct-01 09:00N 39°32' E 002°37'2 4.0
2017-Oct-01 08:29N 39°34' E 002°38'0 0.0
2017-Oct-01 07:59N 39°34' E 002°38'0 0.0
2017-Oct-01 07:29N 39°34' E 002°38'0 0.0
2017-Oct-01 06:59N 39°34' E 002°38'0 0.0
2017-Oct-01 06:29N 39°34' E 002°38'0 0.0
2017-Oct-01 05:59N 39°34' E 002°38'0 0.0
2017-Oct-01 05:29N 39°34' E 002°38'0 0.0
2017-Oct-01 04:59N 39°34' E 002°38'0 0.0
2017-Oct-01 04:29N 39°34' E 002°38'0 0.0
2017-Oct-01 03:59N 39°34' E 002°38'0 0.0
2017-Oct-01 03:29N 39°34' E 002°38'0 0.0
2017-Oct-01 02:59N 39°34' E 002°38'4 0.1
2017-Sep-29 10:32N 39°30' E 002°41'0 6.9
2017-Sep-29 10:30N 39°30' E 002°41'3 6.7
2017-Sep-29 10:00N 39°33' E 002°39'1 1.8
2017-Sep-29 09:29N 39°34' E 002°38'0 0.0
2017-Sep-29 08:59N 39°34' E 002°38'0 0.0
2017-Sep-29 08:30N 39°34' E 002°38'0 0.0
2017-Sep-29 07:59N 39°34' E 002°38'0 0.0
2017-Sep-29 07:29N 39°34' E 002°38'0 0.0
2017-Sep-28 22:51N 39°34' E 002°38'0 0.0
2017-Sep-28 22:30N 39°34' E 002°38'0 0.0
2017-Sep-28 22:00N 39°34' E 002°38'0 0.0
2017-Sep-28 21:30N 39°34' E 002°38'0 0.0
2017-Sep-28 21:00N 39°34' E 002°38'0 0.0
2017-Sep-28 20:30N 39°34' E 002°38'0 0.0
2017-Sep-28 20:00N 39°34' E 002°38'0 0.0
2017-Sep-28 19:30N 39°34' E 002°38'0 0.0
2017-Sep-28 19:00N 39°34' E 002°38'0 0.0
2017-Sep-28 18:30N 39°34' E 002°38'0 0.0
2017-Sep-28 18:00N 39°34' E 002°38'0 0.0
2017-Sep-28 17:30N 39°34' E 002°38'0 0.0
2017-Sep-28 17:00N 39°34' E 002°38'0 0.0
2017-Sep-28 16:30N 39°34' E 002°38'3 0.5
2017-Sep-28 10:25N 39°31' E 002°39'1 3.5
2017-Sep-28 10:00N 39°32' E 002°39'2 3.5
2017-Sep-28 09:30N 39°34' E 002°38'0 0.0
2017-Sep-28 09:00N 39°34' E 002°38'0 0.0
2017-Sep-28 08:30N 39°34' E 002°38'0 0.0
2017-Sep-28 08:00N 39°34' E 002°38'0 0.0
2017-Sep-28 07:30N 39°34' E 002°38'0 0.0
2017-Sep-28 07:00N 39°34' E 002°38'0 0.0
2017-Sep-28 06:30N 39°34' E 002°38'0 0.0
2017-Sep-28 06:00N 39°34' E 002°38'0 0.0
2017-Sep-28 05:30N 39°34' E 002°38'0 0.0
2017-Sep-28 05:00N 39°34' E 002°38'0 0.0
2017-Sep-28 04:30N 39°34' E 002°38'0 0.0
2017-Sep-28 04:00N 39°34' E 002°38'0 0.0
2017-Sep-28 03:30N 39°34' E 002°38'0 0.0
2017-Sep-28 03:00N 39°34' E 002°38'0 0.0
2017-Sep-28 02:30N 39°34' E 002°38'0 0.0
2017-Sep-28 02:00N 39°34' E 002°38'0 0.0
2017-Sep-28 01:30N 39°34' E 002°38'0 0.0
2017-Sep-28 00:57N 39°34' E 002°38'0 0.0
2017-Sep-28 00:27N 39°34' E 002°38'0 0.0
2017-Sep-28 00:00N 39°34' E 002°38'0 0.0
2017-Sep-27 23:30N 39°34' E 002°38'0 0.0
2017-Sep-27 23:00N 39°34' E 002°38'0 0.0
2017-Sep-27 22:30N 39°34' E 002°38'0 0.0
2017-Sep-27 22:00N 39°34' E 002°38'0 0.0
2017-Sep-27 21:30N 39°34' E 002°38'0 0.0
2017-Sep-27 21:00N 39°34' E 002°38'0 0.0
2017-Sep-27 20:30N 39°34' E 002°38'0 0.0
2017-Sep-27 20:00N 39°34' E 002°38'0 0.0
2017-Sep-27 19:30N 39°34' E 002°38'0 0.0
2017-Sep-27 19:00N 39°34' E 002°38'0 0.0
2017-Sep-27 18:30N 39°34' E 002°38'0 0.0
2017-Sep-27 18:00N 39°34' E 002°38'0 0.0
2017-Sep-27 17:30N 39°34' E 002°38'0 0.0
2017-Sep-27 17:00N 39°34' E 002°38'0 0.0
2017-Sep-27 16:30N 39°34' E 002°38'0 0.0
2017-Sep-27 15:57N 39°34' E 002°38'0 0.2
2017-Sep-27 15:30N 39°34' E 002°38'4 7.2
2017-Sep-27 15:01N 39°31' E 002°40'3 5.1
2017-Sep-27 14:30N 39°30' E 002°37'2 4.3
2017-Sep-27 14:01N 39°29' E 002°34'1 2.5
2017-Sep-27 13:30N 39°30' E 002°35'1 3.0
2017-Sep-27 13:01N 39°31' E 002°36'2 3.8
2017-Sep-27 12:29N 39°30' E 002°38'1 3.1
2017-Sep-27 12:01N 39°30' E 002°40'0 0.3
2017-Sep-27 11:31N 39°30' E 002°40'0 0.9
2017-Sep-27 10:58N 39°30' E 002°40'0 0.9
2017-Sep-27 10:30N 39°31' E 002°40'3 5.5
2017-Sep-27 10:00N 39°33' E 002°39'1 1.0
2017-Sep-27 09:28N 39°34' E 002°38'0 0.0
2017-Sep-27 08:58N 39°34' E 002°38'0 0.0
2017-Sep-27 08:28N 39°34' E 002°38'0 0.0
2017-Sep-27 07:58N 39°34' E 002°38'0 0.0
2017-Sep-27 07:22N 39°34' E 002°38'0 0.0
2017-Sep-27 06:58N 39°34' E 002°38'0 0.0
2017-Sep-27 06:28N 39°34' E 002°38'0 0.0
2017-Sep-27 05:58N 39°34' E 002°38'0 0.0
2017-Sep-27 05:28N 39°34' E 002°38'0 0.0
2017-Sep-27 04:58N 39°34' E 002°38'0 0.0
2017-Sep-27 04:28N 39°34' E 002°38'0 0.0
2017-Sep-27 03:58N 39°34' E 002°38'0 0.0
2017-Sep-27 03:28N 39°34' E 002°38'0 0.0
2017-Sep-27 02:58N 39°34' E 002°38'0 0.0
2017-Sep-27 02:28N 39°34' E 002°38'0 0.0
2017-Sep-27 01:58N 39°34' E 002°38'0 0.0
2017-Sep-27 01:28N 39°34' E 002°38'0 0.0
2017-Sep-27 00:58N 39°34' E 002°38'0 0.0
2017-Sep-27 00:28N 39°34' E 002°38'0 0.0
2017-Sep-26 23:58N 39°34' E 002°38'0 0.0
2017-Sep-26 23:28N 39°34' E 002°38'0 0.0
2017-Sep-26 22:58N 39°34' E 002°38'0 0.0
2017-Sep-26 22:28N 39°34' E 002°38'0 0.0
2017-Sep-26 21:58N 39°34' E 002°38'0 0.0
2017-Sep-26 21:28N 39°34' E 002°38'0 0.0
2017-Sep-26 20:58N 39°34' E 002°38'0 0.0
2017-Sep-26 20:28N 39°34' E 002°38'0 0.0
2017-Sep-26 19:58N 39°34' E 002°38'0 0.0
2017-Sep-26 19:28N 39°34' E 002°38'0 0.0
2017-Sep-26 18:58N 39°34' E 002°38'0 0.0
2017-Sep-26 18:28N 39°34' E 002°38'0 0.0
2017-Sep-26 17:58N 39°34' E 002°38'0 0.0
2017-Sep-26 17:28N 39°34' E 002°38'0 0.0
2017-Sep-26 16:58N 39°34' E 002°38'0 0.0
2017-Sep-26 16:28N 39°34' E 002°38'0 0.0
2017-Sep-26 15:58N 39°34' E 002°38'0 0.0
2017-Sep-26 15:28N 39°34' E 002°38'1 1.6
2017-Sep-26 15:00N 39°33' E 002°38'4 7.5
2017-Sep-26 14:30N 39°30' E 002°40'2 4.5
2017-Sep-26 14:00N 39°31' E 002°42'3 5.5
2017-Sep-26 13:30N 39°33' E 002°39'1 2.2
2017-Sep-26 12:58N 39°34' E 002°38'0 0.0
2017-Sep-26 12:28N 39°34' E 002°38'0 0.0
2017-Sep-26 11:58N 39°34' E 002°38'0 0.0
2017-Sep-26 11:28N 39°34' E 002°38'0 0.0
2017-Sep-26 10:58N 39°34' E 002°38'0 0.0
2017-Sep-26 10:28N 39°34' E 002°38'0 0.0
2017-Sep-26 09:58N 39°34' E 002°38'0 0.0
2017-Sep-26 09:28N 39°34' E 002°38'0 0.0
2017-Sep-26 08:58N 39°34' E 002°38'0 0.0
2017-Sep-26 08:28N 39°34' E 002°38'0 0.0
2017-Sep-26 07:58N 39°34' E 002°38'0 0.0
2017-Sep-26 07:28N 39°34' E 002°38'0 0.0
2017-Sep-26 06:58N 39°34' E 002°38'0 0.0
2017-Sep-26 06:28N 39°34' E 002°38'0 0.0
2017-Sep-26 05:58N 39°34' E 002°38'0 0.0
2017-Sep-26 05:28N 39°34' E 002°38'0 0.0
2017-Sep-26 04:58N 39°34' E 002°38'0 0.0
2017-Sep-26 04:28N 39°34' E 002°38'0 0.0
2017-Sep-26 03:58N 39°34' E 002°38'0 0.0
2017-Sep-26 03:28N 39°34' E 002°38'0 0.0
2017-Sep-26 02:58N 39°34' E 002°38'0 0.0
2017-Sep-26 02:28N 39°34' E 002°38'0 0.0
2017-Sep-26 01:58N 39°34' E 002°38'0 0.0
2017-Sep-26 01:28N 39°34' E 002°38'0 0.0
2017-Sep-26 00:58N 39°34' E 002°38'0 0.0
2017-Sep-26 00:28N 39°34' E 002°38'0 0.0
2017-Sep-25 23:58N 39°34' E 002°38'0 0.0
2017-Sep-25 23:28N 39°34' E 002°38'0 0.0
2017-Sep-25 22:58N 39°34' E 002°38'0 0.0
2017-Sep-25 22:28N 39°34' E 002°38'0 0.0
2017-Sep-25 21:58N 39°34' E 002°38'0 0.0
2017-Sep-25 21:28N 39°34' E 002°38'0 0.0
2017-Sep-25 20:58N 39°34' E 002°38'0 0.0
2017-Sep-25 20:28N 39°34' E 002°38'0 0.0
2017-Sep-25 19:58N 39°34' E 002°38'0 0.0
2017-Sep-25 19:28N 39°34' E 002°38'0 0.0
2017-Sep-25 18:58N 39°34' E 002°38'0 0.0
2017-Sep-25 18:28N 39°34' E 002°38'0 0.0
2017-Sep-25 17:58N 39°34' E 002°38'0 0.0
2017-Sep-25 17:28N 39°34' E 002°38'0 0.0
2017-Sep-25 16:58N 39°34' E 002°38'0 0.0
2017-Sep-25 16:28N 39°34' E 002°38'0 0.0
2017-Sep-25 15:58N 39°34' E 002°38'0 0.0
2017-Sep-25 15:28N 39°34' E 002°38'0 0.0
2017-Sep-25 14:58N 39°34' E 002°38'0 0.0
2017-Sep-25 14:28N 39°34' E 002°38'0 0.0
2017-Sep-25 13:58N 39°34' E 002°38'0 0.0
2017-Sep-25 13:28N 39°34' E 002°38'0 0.0
2017-Sep-25 12:58N 39°34' E 002°38'0 0.0
2017-Sep-25 12:28N 39°34' E 002°38'0 0.0
2017-Sep-25 11:58N 39°34' E 002°38'0 0.0
2017-Sep-25 11:28N 39°34' E 002°38'0 0.0
2017-Sep-25 10:58N 39°34' E 002°38'0 0.0
2017-Sep-25 10:28N 39°34' E 002°38'0 0.0
2017-Sep-25 09:58N 39°34' E 002°38'0 0.0
2017-Sep-25 09:28N 39°34' E 002°38'0 0.0
2017-Sep-25 08:58N 39°34' E 002°38'0 0.0
2017-Sep-25 08:28N 39°34' E 002°38'0 0.0
2017-Sep-25 07:58N 39°34' E 002°38'0 0.0
2017-Sep-25 07:28N 39°34' E 002°38'0 0.0
2017-Sep-25 06:58N 39°34' E 002°38'0 0.0
2017-Sep-25 06:28N 39°34' E 002°38'0 0.0
2017-Sep-25 05:58N 39°34' E 002°38'0 0.0
2017-Sep-25 05:28N 39°34' E 002°38'0 0.0
2017-Sep-25 04:58N 39°34' E 002°38'0 0.0
2017-Sep-25 04:28N 39°34' E 002°38'0 0.0
2017-Sep-25 03:58N 39°34' E 002°38'0 0.0
2017-Sep-25 03:28N 39°34' E 002°38'0 0.0
2017-Sep-25 02:58N 39°34' E 002°38'0 0.0
2017-Sep-25 02:28N 39°34' E 002°38'0 0.0
2017-Sep-25 01:58N 39°34' E 002°38'0 0.0
2017-Sep-25 01:28N 39°34' E 002°38'0 0.0
2017-Sep-25 00:58N 39°34' E 002°38'0 0.0
2017-Sep-25 00:28N 39°34' E 002°38'0 0.0
2017-Sep-24 23:58N 39°34' E 002°38'0 0.0
2017-Sep-24 23:28N 39°34' E 002°38'0 0.0
2017-Sep-24 23:01N 39°34' E 002°38'0 0.0
2017-Sep-24 22:28N 39°34' E 002°38'0 0.0
2017-Sep-24 22:01N 39°34' E 002°38'0 0.0
2017-Sep-24 21:31N 39°34' E 002°38'0 0.0
2017-Sep-24 21:01N 39°34' E 002°38'0 0.0
2017-Sep-24 20:28N 39°34' E 002°38'0 0.0
2017-Sep-24 20:01N 39°34' E 002°38'0 0.0
2017-Sep-24 19:28N 39°34' E 002°38'0 0.0
2017-Sep-24 18:58N 39°34' E 002°38'0 0.0
2017-Sep-24 18:28N 39°34' E 002°38'0 0.0
2017-Sep-24 18:01N 39°34' E 002°38'0 0.0
2017-Sep-24 17:31N 39°34' E 002°38'0 0.0
2017-Sep-24 16:58N 39°34' E 002°38'0 0.0
2017-Sep-24 16:31N 39°34' E 002°38'0 0.0
2017-Sep-24 16:01N 39°34' E 002°38'0 0.0
2017-Sep-24 15:28N 39°34' E 002°38'0 0.0
2017-Sep-24 15:01N 39°34' E 002°38'0 0.0
2017-Sep-24 14:31N 39°34' E 002°38'0 0.0
2017-Sep-24 14:01N 39°34' E 002°38'0 0.0
2017-Sep-24 13:31N 39°34' E 002°38'0 0.0
2017-Sep-24 12:58N 39°34' E 002°38'0 0.0
2017-Sep-24 12:31N 39°34' E 002°38'0 0.0
2017-Sep-24 12:01N 39°34' E 002°38'0 0.0
2017-Sep-24 11:31N 39°34' E 002°38'0 0.0
2017-Sep-24 11:01N 39°34' E 002°38'0 0.1
2017-Sep-24 10:30N 39°34' E 002°38'0 0.1
2017-Sep-24 09:59N 39°34' E 002°38'0 0.0
2017-Sep-24 09:29N 39°34' E 002°38'0 0.0
2017-Sep-24 09:00N 39°34' E 002°38'0 0.0
2017-Sep-24 08:30N 39°34' E 002°38'0 0.1
2017-Sep-24 07:59N 39°34' E 002°38'0 0.0
2017-Sep-24 07:29N 39°34' E 002°38'0 0.0
2017-Sep-24 06:59N 39°34' E 002°38'0 0.0
2017-Sep-24 06:29N 39°34' E 002°38'0 0.0
2017-Sep-24 05:58N 39°34' E 002°38'0 0.0
2017-Sep-24 05:28N 39°34' E 002°38'0 0.0
2017-Sep-23 23:00N 39°34' E 002°38'0 0.0
2017-Sep-23 22:30N 39°34' E 002°38'0 0.0
2017-Sep-23 22:00N 39°34' E 002°38'0 0.0
2017-Sep-23 21:31N 39°34' E 002°38'0 0.0
2017-Sep-23 21:00N 39°34' E 002°38'0 0.0
2017-Sep-23 20:30N 39°34' E 002°38'0 0.0
2017-Sep-23 19:57N 39°34' E 002°38'0 0.0
2017-Sep-22 01:59N 39°34' E 002°38'0 0.0
2017-Sep-22 01:29N 39°34' E 002°38'0 0.0
2017-Sep-22 00:59N 39°34' E 002°38'0 0.0
2017-Sep-22 00:29N 39°34' E 002°38'0 0.0
2017-Sep-21 23:59N 39°34' E 002°38'0 0.0
2017-Sep-21 23:29N 39°34' E 002°38'0 0.0
2017-Sep-21 22:59N 39°34' E 002°38'0 0.0
2017-Sep-21 22:29N 39°34' E 002°38'0 0.0
2017-Sep-21 21:59N 39°34' E 002°38'0 0.0
2017-Sep-21 21:29N 39°34' E 002°38'0 0.0
2017-Sep-21 20:59N 39°34' E 002°38'0 0.0
2017-Sep-21 20:29N 39°34' E 002°38'0 0.0
2017-Sep-21 19:59N 39°34' E 002°38'0 0.0
2017-Sep-21 19:29N 39°34' E 002°38'0 0.0
2017-Sep-21 18:59N 39°34' E 002°38'0 0.0
2017-Sep-21 18:29N 39°34' E 002°38'0 0.0
2017-Sep-21 17:59N 39°34' E 002°38'0 0.0
2017-Sep-21 17:29N 39°34' E 002°38'0 0.0
2017-Sep-21 16:59N 39°34' E 002°38'0 0.0
2017-Sep-21 16:29N 39°34' E 002°38'0 0.0
2017-Sep-21 15:59N 39°34' E 002°38'0 0.0
2017-Sep-21 15:29N 39°34' E 002°38'0 0.0
2017-Sep-21 14:59N 39°34' E 002°38'  

Dump ship's entire track history